sensor_id;sensor_type;location;lat;lon;timestamp;pressure;altitude;pressure_sealevel;temperature;humidity
22662;BME280;11497;52.222;21.246;2023-05-21T00:01:28;101201.63;;;12.02;92.20
22662;BME280;11497;52.222;21.246;2023-05-21T00:03:56;101194.94;;;11.90;92.58
22662;BME280;11497;52.222;21.246;2023-05-21T00:06:26;101196.13;;;11.76;93.06
22662;BME280;11497;52.222;21.246;2023-05-21T00:08:54;101201.38;;;11.76;94.15
22662;BME280;11497;52.222;21.246;2023-05-21T00:11:22;101201.97;;;11.88;94.72
22662;BME280;11497;52.222;21.246;2023-05-21T00:13:50;101199.63;;;11.78;94.81
22662;BME280;11497;52.222;21.246;2023-05-21T00:16:18;101196.34;;;11.68;94.99
22662;BME280;11497;52.222;21.246;2023-05-21T00:18:46;101191.28;;;11.60;95.28
22662;BME280;11497;52.222;21.246;2023-05-21T00:21:16;101192.38;;;11.52;95.70
22662;BME280;11497;52.222;21.246;2023-05-21T00:23:44;101190.72;;;11.48;96.15
22662;BME280;11497;52.222;21.246;2023-05-21T00:26:12;101193.31;;;11.49;96.63
22662;BME280;11497;52.222;21.246;2023-05-21T00:28:41;101184.63;;;11.47;96.78
22662;BME280;11497;52.222;21.246;2023-05-21T00:31:09;101188.97;;;11.48;97.12
22662;BME280;11497;52.222;21.246;2023-05-21T00:33:37;101193.66;;;11.34;97.32
22662;BME280;11497;52.222;21.246;2023-05-21T00:36:05;101195.72;;;11.23;97.81
22662;BME280;11497;52.222;21.246;2023-05-21T00:38:34;101193.16;;;11.20;97.98
22662;BME280;11497;52.222;21.246;2023-05-21T00:41:04;101196.75;;;11.16;98.47
22662;BME280;11497;52.222;21.246;2023-05-21T00:43:32;101190.53;;;11.20;99.04
22662;BME280;11497;52.222;21.246;2023-05-21T00:46:00;101201.63;;;11.29;99.36
22662;BME280;11497;52.222;21.246;2023-05-21T00:48:28;101195.47;;;11.32;99.09
22662;BME280;11497;52.222;21.246;2023-05-21T00:50:56;101193.91;;;11.25;99.02
22662;BME280;11497;52.222;21.246;2023-05-21T00:53:24;101204.47;;;11.22;99.23
22662;BME280;11497;52.222;21.246;2023-05-21T00:55:54;101195.63;;;11.26;99.42
22662;BME280;11497;52.222;21.246;2023-05-21T00:58:22;101195.84;;;11.17;99.29
22662;BME280;11497;52.222;21.246;2023-05-21T01:00:50;101198.97;;;11.31;98.93
22662;BME280;11497;52.222;21.246;2023-05-21T01:03:22;101194.56;;;11.33;98.61
22662;BME280;11497;52.222;21.246;2023-05-21T01:05:50;101200.16;;;11.19;98.38
22662;BME280;11497;52.222;21.246;2023-05-21T01:08:20;101203.88;;;11.09;98.50
22662;BME280;11497;52.222;21.246;2023-05-21T01:10:48;101197.00;;;11.04;98.75
22662;BME280;11497;52.222;21.246;2023-05-21T01:13:17;101198.09;;;10.93;99.02
22662;BME280;11497;52.222;21.246;2023-05-21T01:15:47;101194.88;;;10.82;99.53
22662;BME280;11497;52.222;21.246;2023-05-21T01:18:16;101194.94;;;10.79;99.99
22662;BME280;11497;52.222;21.246;2023-05-21T01:20:46;101199.41;;;10.74;100.00
22662;BME280;11497;52.222;21.246;2023-05-21T01:23:18;101188.03;;;10.75;100.00
22662;BME280;11497;52.222;21.246;2023-05-21T01:25:46;101198.75;;;10.63;100.00
22662;BME280;11497;52.222;21.246;2023-05-21T01:28:15;101197.16;;;10.56;100.00
22662;BME280;11497;52.222;21.246;2023-05-21T01:30:43;101200.78;;;10.49;100.00
22662;BME280;11497;52.222;21.246;2023-05-21T01:33:18;101196.28;;;10.57;100.00
22662;BME280;11497;52.222;21.246;2023-05-21T01:35:59;101197.09;;;10.59;100.00
22662;BME280;11497;52.222;21.246;2023-05-21T01:38:40;101190.13;;;10.58;100.00
22662;BME280;11497;52.222;21.246;2023-05-21T01:41:12;101196.53;;;10.43;100.00
22662;BME280;11497;52.222;21.246;2023-05-21T01:43:45;101193.78;;;10.51;100.00
22662;BME280;11497;52.222;21.246;2023-05-21T01:46:17;101181.41;;;10.59;100.00
22662;BME280;11497;52.222;21.246;2023-05-21T01:48:48;101187.63;;;10.53;100.00
22662;BME280;11497;52.222;21.246;2023-05-21T01:51:16;101186.13;;;10.40;100.00
22662;BME280;11497;52.222;21.246;2023-05-21T01:53:44;101188.06;;;10.32;100.00
22662;BME280;11497;52.222;21.246;2023-05-21T01:56:12;101185.66;;;10.21;100.00
22662;BME280;11497;52.222;21.246;2023-05-21T01:58:42;101181.44;;;10.11;100.00
22662;BME280;11497;52.222;21.246;2023-05-21T02:01:10;101192.06;;;10.02;100.00
22662;BME280;11497;52.222;21.246;2023-05-21T02:03:39;101191.38;;;9.94;100.00
22662;BME280;11497;52.222;21.246;2023-05-21T02:06:07;101187.97;;;9.89;100.00
22662;BME280;11497;52.222;21.246;2023-05-21T02:08:35;101200.81;;;10.01;100.00
22662;BME280;11497;52.222;21.246;2023-05-21T02:11:03;101195.47;;;10.07;100.00
22662;BME280;11497;52.222;21.246;2023-05-21T02:13:31;101193.88;;;9.98;100.00
22662;BME280;11497;52.222;21.246;2023-05-21T02:15:58;101191.19;;;10.03;100.00
22662;BME280;11497;52.222;21.246;2023-05-21T02:18:28;101187.88;;;9.95;100.00
22662;BME280;11497;52.222;21.246;2023-05-21T02:20:56;101196.66;;;9.91;100.00
22662;BME280;11497;52.222;21.246;2023-05-21T02:23:24;101191.13;;;10.06;100.00
22662;BME280;11497;52.222;21.246;2023-05-21T02:25:52;101183.88;;;10.23;100.00
22662;BME280;11497;52.222;21.246;2023-05-21T02:28:20;101182.84;;;10.30;100.00
22662;BME280;11497;52.222;21.246;2023-05-21T02:30:47;101179.25;;;10.36;100.00
22662;BME280;11497;52.222;21.246;2023-05-21T02:33:16;101181.75;;;10.41;100.00
22662;BME280;11497;52.222;21.246;2023-05-21T02:35:44;101183.47;;;10.42;100.00
22662;BME280;11497;52.222;21.246;2023-05-21T02:38:12;101178.41;;;10.36;100.00
22662;BME280;11497;52.222;21.246;2023-05-21T02:40:40;101172.38;;;10.32;100.00
22662;BME280;11497;52.222;21.246;2023-05-21T02:43:08;101180.91;;;10.40;100.00
22662;BME280;11497;52.222;21.246;2023-05-21T02:45:36;101176.63;;;10.38;100.00
22662;BME280;11497;52.222;21.246;2023-05-21T02:48:05;101186.00;;;10.46;100.00
22662;BME280;11497;52.222;21.246;2023-05-21T02:50:37;101179.91;;;10.46;100.00
22662;BME280;11497;52.222;21.246;2023-05-21T02:53:06;101178.19;;;10.45;100.00
22662;BME280;11497;52.222;21.246;2023-05-21T02:55:35;101184.47;;;10.38;100.00
22662;BME280;11497;52.222;21.246;2023-05-21T02:58:04;101178.53;;;10.29;100.00
22662;BME280;11497;52.222;21.246;2023-05-21T03:00:32;101180.28;;;10.29;100.00
22662;BME280;11497;52.222;21.246;2023-05-21T03:03:00;101182.84;;;10.32;100.00
22662;BME280;11497;52.222;21.246;2023-05-21T03:05:28;101178.19;;;10.45;100.00
22662;BME280;11497;52.222;21.246;2023-05-21T03:07:56;101179.66;;;10.58;100.00
22662;BME280;11497;52.222;21.246;2023-05-21T03:10:25;101178.50;;;10.73;100.00
22662;BME280;11497;52.222;21.246;2023-05-21T03:12:53;101160.66;;;10.88;99.38
22662;BME280;11497;52.222;21.246;2023-05-21T03:15:22;101188.16;;;11.09;98.13
22662;BME280;11497;52.222;21.246;2023-05-21T03:17:51;101191.81;;;11.02;97.25
22662;BME280;11497;52.222;21.246;2023-05-21T03:20:20;101185.72;;;11.00;97.18
22662;BME280;11497;52.222;21.246;2023-05-21T03:22:48;101183.13;;;11.37;95.58
22662;BME280;11497;52.222;21.246;2023-05-21T03:25:16;101184.34;;;11.59;93.17
22662;BME280;11497;52.222;21.246;2023-05-21T03:27:45;101176.44;;;11.95;91.31
22662;BME280;11497;52.222;21.246;2023-05-21T03:30:35;101182.16;;;12.42;89.16
22662;BME280;11497;52.222;21.246;2023-05-21T03:33:25;101179.00;;;12.89;86.33
22662;BME280;11497;52.222;21.246;2023-05-21T03:35:53;101174.38;;;12.97;84.31
22662;BME280;11497;52.222;21.246;2023-05-21T03:38:22;101176.22;;;12.94;83.31
22662;BME280;11497;52.222;21.246;2023-05-21T03:40:50;101174.97;;;13.06;82.53
22662;BME280;11497;52.222;21.246;2023-05-21T03:43:18;101177.31;;;13.15;81.68
22662;BME280;11497;52.222;21.246;2023-05-21T03:45:46;101166.78;;;13.16;80.66
22662;BME280;11497;52.222;21.246;2023-05-21T03:48:37;101172.44;;;13.32;79.25
22662;BME280;11497;52.222;21.246;2023-05-21T03:51:05;101166.31;;;13.31;78.54
22662;BME280;11497;52.222;21.246;2023-05-21T03:53:35;101170.56;;;13.36;77.94
22662;BME280;11497;52.222;21.246;2023-05-21T03:56:03;101166.75;;;13.44;77.02
22662;BME280;11497;52.222;21.246;2023-05-21T03:58:32;101169.88;;;13.55;75.39
22662;BME280;11497;52.222;21.246;2023-05-21T04:01:00;101171.72;;;13.53;75.02
22662;BME280;11497;52.222;21.246;2023-05-21T04:03:30;101170.78;;;13.54;75.04
22662;BME280;11497;52.222;21.246;2023-05-21T04:06:04;101170.59;;;13.60;74.19
22662;BME280;11497;52.222;21.246;2023-05-21T04:08:33;101169.28;;;13.74;73.32
22662;BME280;11497;52.222;21.246;2023-05-21T04:11:01;101175.34;;;14.01;72.53
22662;BME280;11497;52.222;21.246;2023-05-21T04:13:29;101176.31;;;14.71;70.24
22662;BME280;11497;52.222;21.246;2023-05-21T04:15:57;101169.63;;;14.38;70.68
22662;BME280;11497;52.222;21.246;2023-05-21T04:18:26;101170.34;;;14.43;70.43
22662;BME280;11497;52.222;21.246;2023-05-21T04:20:54;101174.47;;;14.73;69.49
22662;BME280;11497;52.222;21.246;2023-05-21T04:23:22;101166.47;;;15.63;67.98
22662;BME280;11497;52.222;21.246;2023-05-21T04:25:51;101167.97;;;16.69;66.06
22662;BME280;11497;52.222;21.246;2023-05-21T04:28:20;101171.75;;;17.37;61.05
22662;BME280;11497;52.222;21.246;2023-05-21T04:30:50;101162.19;;;18.54;59.31
22662;BME280;11497;52.222;21.246;2023-05-21T04:33:18;101171.25;;;19.60;54.37
22662;BME280;11497;52.222;21.246;2023-05-21T04:35:48;101164.28;;;18.80;52.74
22662;BME280;11497;52.222;21.246;2023-05-21T04:38:18;101160.28;;;17.90;53.83
22662;BME280;11497;52.222;21.246;2023-05-21T04:40:49;101160.88;;;17.60;54.35
22662;BME280;11497;52.222;21.246;2023-05-21T04:43:18;101163.34;;;17.29;55.31
22662;BME280;11497;52.222;21.246;2023-05-21T04:45:55;101162.63;;;17.25;54.79
22662;BME280;11497;52.222;21.246;2023-05-21T04:48:25;101157.38;;;17.07;55.12
22662;BME280;11497;52.222;21.246;2023-05-21T04:50:54;101163.59;;;17.06;55.45
22662;BME280;11497;52.222;21.246;2023-05-21T04:53:23;101155.66;;;17.06;55.96
22662;BME280;11497;52.222;21.246;2023-05-21T04:55:52;101164.41;;;16.89;56.50
22662;BME280;11497;52.222;21.246;2023-05-21T04:58:21;101153.66;;;17.11;55.91
22662;BME280;11497;52.222;21.246;2023-05-21T05:00:48;101161.63;;;17.28;55.32
22662;BME280;11497;52.222;21.246;2023-05-21T05:03:18;101152.13;;;17.41;55.07
22662;BME280;11497;52.222;21.246;2023-05-21T05:05:47;101153.22;;;17.37;54.75
22662;BME280;11497;52.222;21.246;2023-05-21T05:08:15;101153.75;;;19.10;52.91
22662;BME280;11497;52.222;21.246;2023-05-21T05:10:43;101162.31;;;19.77;49.78
22662;BME280;11497;52.222;21.246;2023-05-21T05:13:11;101156.69;;;20.54;47.38
22662;BME280;11497;52.222;21.246;2023-05-21T05:15:39;101164.09;;;19.46;47.50
22662;BME280;11497;52.222;21.246;2023-05-21T05:18:08;101155.50;;;18.96;47.91
22662;BME280;11497;52.222;21.246;2023-05-21T05:20:36;101153.41;;;18.69;48.28
22662;BME280;11497;52.222;21.246;2023-05-21T05:23:05;101143.50;;;18.40;48.42
22662;BME280;11497;52.222;21.246;2023-05-21T05:25:32;101152.72;;;18.33;49.11
22662;BME280;11497;52.222;21.246;2023-05-21T05:28:01;101151.19;;;18.28;48.74
22662;BME280;11497;52.222;21.246;2023-05-21T05:30:28;101146.97;;;18.24;50.00
22662;BME280;11497;52.222;21.246;2023-05-21T05:33:09;101153.47;;;18.52;48.72
22662;BME280;11497;52.222;21.246;2023-05-21T05:35:38;101158.22;;;18.45;48.40
22662;BME280;11497;52.222;21.246;2023-05-21T05:38:06;101156.88;;;18.54;48.05
22662;BME280;11497;52.222;21.246;2023-05-21T05:40:36;101155.34;;;18.50;48.29
22662;BME280;11497;52.222;21.246;2023-05-21T05:43:05;101148.50;;;18.46;48.92
22662;BME280;11497;52.222;21.246;2023-05-21T05:45:34;101151.41;;;18.57;48.81
22662;BME280;11497;52.222;21.246;2023-05-21T05:48:08;101148.78;;;18.57;48.96
22662;BME280;11497;52.222;21.246;2023-05-21T05:50:36;101149.56;;;18.75;48.38
22662;BME280;11497;52.222;21.246;2023-05-21T05:53:04;101143.94;;;18.97;47.82
22662;BME280;11497;52.222;21.246;2023-05-21T05:55:33;101148.09;;;19.32;46.80
22662;BME280;11497;52.222;21.246;2023-05-21T05:58:02;101148.25;;;20.47;45.07
22662;BME280;11497;52.222;21.246;2023-05-21T06:00:31;101147.56;;;21.40;42.79
22662;BME280;11497;52.222;21.246;2023-05-21T06:03:00;101152.63;;;21.57;43.03
22662;BME280;11497;52.222;21.246;2023-05-21T06:05:28;101153.25;;;21.48;43.08
22662;BME280;11497;52.222;21.246;2023-05-21T06:07:57;101143.34;;;22.03;42.30
22662;BME280;11497;52.222;21.246;2023-05-21T06:10:25;101151.25;;;22.92;40.52
22662;BME280;11497;52.222;21.246;2023-05-21T06:12:53;101149.13;;;23.08;39.10
22662;BME280;11497;52.222;21.246;2023-05-21T06:15:21;101152.22;;;22.65;39.16
22662;BME280;11497;52.222;21.246;2023-05-21T06:17:49;101147.16;;;22.37;39.51
22662;BME280;11497;52.222;21.246;2023-05-21T06:20:17;101145.44;;;22.36;40.54
22662;BME280;11497;52.222;21.246;2023-05-21T06:22:45;101141.13;;;22.84;40.56
22662;BME280;11497;52.222;21.246;2023-05-21T06:25:13;101144.38;;;23.24;39.35
22662;BME280;11497;52.222;21.246;2023-05-21T06:27:41;101148.81;;;22.63;38.51
22662;BME280;11497;52.222;21.246;2023-05-21T06:30:16;101145.13;;;22.28;38.64
22662;BME280;11497;52.222;21.246;2023-05-21T06:32:44;101146.50;;;21.95;39.17
22662;BME280;11497;52.222;21.246;2023-05-21T06:35:12;101145.75;;;21.93;39.58
22662;BME280;11497;52.222;21.246;2023-05-21T06:37:41;101147.66;;;21.91;39.45
22662;BME280;11497;52.222;21.246;2023-05-21T06:40:09;101143.97;;;22.06;39.48
22662;BME280;11497;52.222;21.246;2023-05-21T06:42:39;101140.16;;;22.72;39.56
22662;BME280;11497;52.222;21.246;2023-05-21T06:45:36;101142.09;;;23.07;38.49
22662;BME280;11497;52.222;21.246;2023-05-21T06:48:23;101137.66;;;22.95;38.42
22662;BME280;11497;52.222;21.246;2023-05-21T06:50:51;101137.88;;;23.15;38.16
22662;BME280;11497;52.222;21.246;2023-05-21T06:53:19;101142.13;;;23.66;37.91
22662;BME280;11497;52.222;21.246;2023-05-21T06:55:48;101141.66;;;24.63;37.41
22662;BME280;11497;52.222;21.246;2023-05-21T06:58:27;101133.56;;;25.92;35.15
22662;BME280;11497;52.222;21.246;2023-05-21T07:00:58;101133.88;;;26.60;32.95
22662;BME280;11497;52.222;21.246;2023-05-21T07:03:27;101131.66;;;26.74;32.52
22662;BME280;11497;52.222;21.246;2023-05-21T07:05:57;101131.28;;;26.48;32.41
22662;BME280;11497;52.222;21.246;2023-05-21T07:08:25;101120.63;;;26.68;32.10
22662;BME280;11497;52.222;21.246;2023-05-21T07:10:54;101126.34;;;28.00;31.11
22662;BME280;11497;52.222;21.246;2023-05-21T07:13:25;101129.13;;;30.15;28.81
22662;BME280;11497;52.222;21.246;2023-05-21T07:15:53;101129.50;;;32.09;26.74
22662;BME280;11497;52.222;21.246;2023-05-21T07:18:21;101126.81;;;33.87;23.53
22662;BME280;11497;52.222;21.246;2023-05-21T07:20:49;101120.72;;;35.31;22.39
22662;BME280;11497;52.222;21.246;2023-05-21T07:23:17;101123.59;;;36.28;20.67
22662;BME280;11497;52.222;21.246;2023-05-21T07:25:46;101125.44;;;37.76;19.50
22662;BME280;11497;52.222;21.246;2023-05-21T07:28:14;101126.03;;;38.11;18.64
22662;BME280;11497;52.222;21.246;2023-05-21T07:30:42;101126.25;;;38.16;18.30
22662;BME280;11497;52.222;21.246;2023-05-21T07:33:14;101125.38;;;38.28;18.27
22662;BME280;11497;52.222;21.246;2023-05-21T07:35:44;101122.16;;;38.51;17.84
22662;BME280;11497;52.222;21.246;2023-05-21T07:38:12;101117.53;;;38.45;17.72
22662;BME280;11497;52.222;21.246;2023-05-21T07:40:40;101121.44;;;39.39;16.62
22662;BME280;11497;52.222;21.246;2023-05-21T07:43:08;101127.72;;;39.14;15.97
22662;BME280;11497;52.222;21.246;2023-05-21T07:45:37;101122.66;;;39.18;15.81
22662;BME280;11497;52.222;21.246;2023-05-21T07:48:05;101119.47;;;38.83;15.95
22662;BME280;11497;52.222;21.246;2023-05-21T07:50:37;101121.00;;;38.08;16.12
22662;BME280;11497;52.222;21.246;2023-05-21T07:53:05;101120.91;;;38.47;16.16
22662;BME280;11497;52.222;21.246;2023-05-21T07:55:34;101117.88;;;37.98;16.10
22662;BME280;11497;52.222;21.246;2023-05-21T07:58:03;101110.75;;;38.61;16.39
22662;BME280;11497;52.222;21.246;2023-05-21T08:00:42;101124.25;;;39.32;16.08
22662;BME280;11497;52.222;21.246;2023-05-21T08:03:16;101119.50;;;39.71;15.50
22662;BME280;11497;52.222;21.246;2023-05-21T08:05:45;101124.13;;;40.68;14.46
22662;BME280;11497;52.222;21.246;2023-05-21T08:08:17;101117.63;;;40.81;14.65
22662;BME280;11497;52.222;21.246;2023-05-21T08:10:46;101115.53;;;40.10;15.21
22662;BME280;11497;52.222;21.246;2023-05-21T08:13:15;101111.78;;;40.77;14.64
22662;BME280;11497;52.222;21.246;2023-05-21T08:15:46;101116.16;;;40.97;14.43
22662;BME280;11497;52.222;21.246;2023-05-21T08:18:17;101116.84;;;40.74;14.90
22662;BME280;11497;52.222;21.246;2023-05-21T08:20:46;101110.75;;;40.60;14.07
22662;BME280;11497;52.222;21.246;2023-05-21T08:23:17;101111.44;;;40.19;14.80
22662;BME280;11497;52.222;21.246;2023-05-21T08:25:51;101107.41;;;40.88;14.33
22662;BME280;11497;52.222;21.246;2023-05-21T08:28:21;101100.25;;;40.20;14.05
22662;BME280;11497;52.222;21.246;2023-05-21T08:30:51;101103.03;;;40.32;13.94
22662;BME280;11497;52.222;21.246;2023-05-21T08:33:21;101093.50;;;38.99;14.85
22662;BME280;11497;52.222;21.246;2023-05-21T08:35:49;101089.31;;;39.28;14.88
22662;BME280;11497;52.222;21.246;2023-05-21T08:38:22;101091.34;;;39.07;15.01
22662;BME280;11497;52.222;21.246;2023-05-21T08:41:13;101084.84;;;39.33;14.94
22662;BME280;11497;52.222;21.246;2023-05-21T08:43:44;101084.81;;;39.08;14.73
22662;BME280;11497;52.222;21.246;2023-05-21T08:46:21;101086.28;;;39.36;14.57
22662;BME280;11497;52.222;21.246;2023-05-21T08:48:54;101091.06;;;38.39;14.89
22662;BME280;11497;52.222;21.246;2023-05-21T08:51:24;101089.75;;;38.93;14.30
22662;BME280;11497;52.222;21.246;2023-05-21T08:53:53;101091.06;;;38.39;14.39
22662;BME280;11497;52.222;21.246;2023-05-21T08:56:23;101081.13;;;37.34;15.04
22662;BME280;11497;52.222;21.246;2023-05-21T08:58:58;101086.19;;;36.56;15.32
22662;BME280;11497;52.222;21.246;2023-05-21T09:01:28;101091.78;;;36.35;15.84
22662;BME280;11497;52.222;21.246;2023-05-21T09:04:14;101073.94;;;37.00;15.55
22662;BME280;11497;52.222;21.246;2023-05-21T09:06:52;101081.53;;;37.38;15.12
22662;BME280;11497;52.222;21.246;2023-05-21T09:09:48;101076.47;;;37.08;15.12
22662;BME280;11497;52.222;21.246;2023-05-21T09:12:18;101082.59;;;37.37;15.33
22662;BME280;11497;52.222;21.246;2023-05-21T09:14:47;101082.72;;;36.89;15.26
22662;BME280;11497;52.222;21.246;2023-05-21T09:17:18;101086.00;;;36.64;15.41
22662;BME280;11497;52.222;21.246;2023-05-21T09:20:09;101080.97;;;36.68;15.82
22662;BME280;11497;52.222;21.246;2023-05-21T09:23:06;101071.91;;;36.13;16.37
22662;BME280;11497;52.222;21.246;2023-05-21T09:25:39;101071.16;;;36.26;16.34
22662;BME280;11497;52.222;21.246;2023-05-21T09:28:13;101076.75;;;35.55;15.97
22662;BME280;11497;52.222;21.246;2023-05-21T09:30:51;101063.56;;;35.59;16.87
22662;BME280;11497;52.222;21.246;2023-05-21T09:33:25;101067.44;;;34.14;16.75
22662;BME280;11497;52.222;21.246;2023-05-21T09:35:53;101062.19;;;33.97;17.54
22662;BME280;11497;52.222;21.246;2023-05-21T09:38:22;101058.53;;;34.34;17.48
22662;BME280;11497;52.222;21.246;2023-05-21T09:40:52;101070.19;;;34.64;17.44
22662;BME280;11497;52.222;21.246;2023-05-21T09:43:22;101059.56;;;34.84;17.37
22662;BME280;11497;52.222;21.246;2023-05-21T09:45:55;101058.34;;;34.07;17.20
22662;BME280;11497;52.222;21.246;2023-05-21T09:48:33;101052.44;;;33.88;18.08
22662;BME280;11497;52.222;21.246;2023-05-21T09:51:14;101049.34;;;32.79;18.65
22662;BME280;11497;52.222;21.246;2023-05-21T09:53:50;101046.97;;;33.21;18.97
22662;BME280;11497;52.222;21.246;2023-05-21T09:56:27;101043.38;;;33.44;18.96
22662;BME280;11497;52.222;21.246;2023-05-21T09:59:01;101041.63;;;33.51;18.82
22662;BME280;11497;52.222;21.246;2023-05-21T10:01:32;101049.72;;;33.88;18.99
22662;BME280;11497;52.222;21.246;2023-05-21T10:04:04;101049.22;;;33.55;18.81
22662;BME280;11497;52.222;21.246;2023-05-21T10:06:44;101054.47;;;32.65;19.19
22662;BME280;11497;52.222;21.246;2023-05-21T10:09:14;101054.66;;;32.33;19.63
22662;BME280;11497;52.222;21.246;2023-05-21T10:11:47;101040.63;;;32.52;19.74
22662;BME280;11497;52.222;21.246;2023-05-21T10:14:19;101043.72;;;31.14;20.47
22662;BME280;11497;52.222;21.246;2023-05-21T10:16:49;101031.22;;;29.53;21.92
22662;BME280;11497;52.222;21.246;2023-05-21T10:19:19;101045.25;;;28.22;23.38
22662;BME280;11497;52.222;21.246;2023-05-21T10:21:49;101033.06;;;27.05;24.47
22662;BME280;11497;52.222;21.246;2023-05-21T10:24:19;101031.31;;;26.75;26.32
22662;BME280;11497;52.222;21.246;2023-05-21T10:26:47;101028.66;;;26.26;26.43
22662;BME280;11497;52.222;21.246;2023-05-21T10:29:15;101032.03;;;26.28;26.99
22662;BME280;11497;52.222;21.246;2023-05-21T10:31:46;101032.16;;;25.86;26.50
22662;BME280;11497;52.222;21.246;2023-05-21T10:34:17;101024.47;;;25.51;26.87
22662;BME280;11497;52.222;21.246;2023-05-21T10:36:46;101021.47;;;25.44;27.40
22662;BME280;11497;52.222;21.246;2023-05-21T10:39:16;101018.59;;;25.36;27.38
22662;BME280;11497;52.222;21.246;2023-05-21T10:41:56;101021.91;;;25.29;27.62
22662;BME280;11497;52.222;21.246;2023-05-21T10:50:42;101022.91;;;25.07;28.41
22662;BME280;11497;52.222;21.246;2023-05-21T10:57:01;101016.50;;;25.19;27.73
22662;BME280;11497;52.222;21.246;2023-05-21T10:59:42;101018.16;;;25.10;27.97
22662;BME280;11497;52.222;21.246;2023-05-21T11:02:14;101014.78;;;25.18;28.86
22662;BME280;11497;52.222;21.246;2023-05-21T11:04:46;101014.53;;;25.21;28.69
22662;BME280;11497;52.222;21.246;2023-05-21T11:07:22;101019.75;;;25.02;28.64
22662;BME280;11497;52.222;21.246;2023-05-21T11:21:20;100997.53;;;24.47;28.53
22662;BME280;11497;52.222;21.246;2023-05-21T11:24:03;100993.72;;;24.61;29.01
22662;BME280;11497;52.222;21.246;2023-05-21T11:29:40;100990.19;;;24.60;29.37
22662;BME280;11497;52.222;21.246;2023-05-21T11:32:10;100992.63;;;24.63;29.50
22662;BME280;11497;52.222;21.246;2023-05-21T11:34:46;100995.59;;;24.81;29.59
22662;BME280;11497;52.222;21.246;2023-05-21T11:39:48;100982.16;;;24.60;29.67
22662;BME280;11497;52.222;21.246;2023-05-21T11:42:39;100991.00;;;24.72;29.12
22662;BME280;11497;52.222;21.246;2023-05-21T11:45:09;100980.69;;;24.67;28.56
22662;BME280;11497;52.222;21.246;2023-05-21T11:47:39;100976.56;;;24.63;28.71
22662;BME280;11497;52.222;21.246;2023-05-21T11:50:12;100974.75;;;24.84;29.04
22662;BME280;11497;52.222;21.246;2023-05-21T11:52:41;100978.19;;;24.75;27.87
22662;BME280;11497;52.222;21.246;2023-05-21T11:55:09;100986.22;;;24.75;27.95
22662;BME280;11497;52.222;21.246;2023-05-21T11:57:41;100985.97;;;24.78;27.49
22662;BME280;11497;52.222;21.246;2023-05-21T12:00:15;100981.34;;;24.80;27.74
22662;BME280;11497;52.222;21.246;2023-05-21T12:02:49;100972.13;;;24.73;27.50
22662;BME280;11497;52.222;21.246;2023-05-21T12:05:18;100982.31;;;24.79;28.64
22662;BME280;11497;52.222;21.246;2023-05-21T12:07:47;100980.38;;;24.81;28.51
22662;BME280;11497;52.222;21.246;2023-05-21T12:10:21;100972.41;;;24.91;28.60
22662;BME280;11497;52.222;21.246;2023-05-21T12:12:51;100973.91;;;24.84;28.94
22662;BME280;11497;52.222;21.246;2023-05-21T12:15:23;100972.28;;;24.93;29.28
22662;BME280;11497;52.222;21.246;2023-05-21T12:17:53;100981.22;;;24.50;29.95
22662;BME280;11497;52.222;21.246;2023-05-21T12:20:21;100977.91;;;24.26;29.86
22662;BME280;11497;52.222;21.246;2023-05-21T12:22:50;100964.97;;;24.19;29.49
22662;BME280;11497;52.222;21.246;2023-05-21T12:25:19;100968.88;;;24.15;29.49
22662;BME280;11497;52.222;21.246;2023-05-21T12:27:48;100969.31;;;24.43;29.60
22662;BME280;11497;52.222;21.246;2023-05-21T12:30:19;100962.69;;;24.69;29.10
22662;BME280;11497;52.222;21.246;2023-05-21T12:32:48;100961.25;;;24.54;28.79
22662;BME280;11497;52.222;21.246;2023-05-21T12:35:22;100968.16;;;24.13;28.87
22662;BME280;11497;52.222;21.246;2023-05-21T12:37:51;100959.88;;;24.28;29.05
22662;BME280;11497;52.222;21.246;2023-05-21T12:40:19;100971.78;;;24.35;28.01
22662;BME280;11497;52.222;21.246;2023-05-21T12:42:49;100965.19;;;24.39;28.02
22662;BME280;11497;52.222;21.246;2023-05-21T12:45:18;100957.19;;;24.28;28.17
22662;BME280;11497;52.222;21.246;2023-05-21T12:47:48;100962.66;;;24.37;29.04
22662;BME280;11497;52.222;21.246;2023-05-21T12:50:20;100957.91;;;24.30;28.53
22662;BME280;11497;52.222;21.246;2023-05-21T12:52:48;100959.53;;;24.10;28.41
22662;BME280;11497;52.222;21.246;2023-05-21T12:55:16;100952.59;;;24.07;28.77
22662;BME280;11497;52.222;21.246;2023-05-21T12:57:44;100952.22;;;24.23;29.12
22662;BME280;11497;52.222;21.246;2023-05-21T13:00:13;100951.09;;;24.37;28.72
22662;BME280;11497;52.222;21.246;2023-05-21T13:02:42;100949.38;;;24.47;28.72
22662;BME280;11497;52.222;21.246;2023-05-21T13:05:16;100948.81;;;24.64;28.60
22662;BME280;11497;52.222;21.246;2023-05-21T13:07:45;100949.81;;;24.63;28.07
22662;BME280;11497;52.222;21.246;2023-05-21T13:10:14;100949.63;;;24.44;27.25
22662;BME280;11497;52.222;21.246;2023-05-21T13:12:44;100949.41;;;24.25;27.23
22662;BME280;11497;52.222;21.246;2023-05-21T13:15:12;100944.06;;;24.25;26.93
22662;BME280;11497;52.222;21.246;2023-05-21T13:17:41;100942.81;;;24.40;27.32
22662;BME280;11497;52.222;21.246;2023-05-21T13:20:17;100943.06;;;24.37;27.33
22662;BME280;11497;52.222;21.246;2023-05-21T13:22:50;100944.88;;;24.47;27.11